FDB1025 OMDB-VRMM
Flight info
| Callsign | FDB1025 |
|---|---|
| Flight time | 3h 46m |
| Altitude | 33000 |
| Route | ANVIX L223 TARDI N629 GIDAN P570 KITAL L894 GOLEM/N0468F350 L894 ELBET ELBET1B |
| Aircraft | B738/M-SDGIJ1LRWY/SB1 |
Departure
| Time | 2026-05-04 15:12 |
|---|---|
| Airport | Dubai International Airport (OMDB) |
Arrival
| Time | 2026-05-04 18:59 |
|---|---|
| Airport | Velana International Airport (VRMM) |
| Time | Latitude | Longitude | Altitude | Speed | Heading |
|---|---|---|---|---|---|
| 2026-05-04 14:33 | 25.26556 | 55.35590 | 69 ft | 0 kts | 31° |
| 2026-05-04 14:58 | 25.26546 | 55.35583 | 69 ft | 2 kts | 31° |
| 2026-05-04 14:58 | 25.26533 | 55.35574 | 69 ft | 2 kts | 31° |
| 2026-05-04 14:58 | 25.26521 | 55.35566 | 69 ft | 2 kts | 31° |
| 2026-05-04 14:59 | 25.26508 | 55.35558 | 69 ft | 2 kts | 31° |
| 2026-05-04 14:59 | 25.26496 | 55.35549 | 69 ft | 2 kts | 31° |
| 2026-05-04 14:59 | 25.26488 | 55.35523 | 69 ft | 0 kts | 117° |
| 2026-05-04 15:00 | 25.26492 | 55.35517 | 69 ft | 1 kts | 122° |
| 2026-05-04 15:00 | 25.26493 | 55.35515 | 69 ft | 0 kts | 122° |
| 2026-05-04 15:03 | 25.26492 | 55.35516 | 69 ft | 0 kts | 122° |
| 2026-05-04 15:03 | 25.26487 | 55.35524 | 69 ft | 3 kts | 122° |
| 2026-05-04 15:04 | 25.26470 | 55.35556 | 69 ft | 6 kts | 122° |
| 2026-05-04 15:04 | 25.26446 | 55.35606 | 69 ft | 8 kts | 116° |
| 2026-05-04 15:04 | 25.26413 | 55.35673 | 69 ft | 11 kts | 121° |
| 2026-05-04 15:04 | 25.26367 | 55.35755 | 69 ft | 13 kts | 121° |
| 2026-05-04 15:05 | 25.26311 | 55.35855 | 69 ft | 16 kts | 121° |
| 2026-05-04 15:05 | 25.26285 | 55.35901 | 69 ft | 2 kts | 121° |
| 2026-05-04 15:05 | 25.26274 | 55.35914 | 69 ft | 2 kts | 148° |
| 2026-05-04 15:05 | 25.26242 | 55.35909 | 69 ft | 7 kts | 201° |
| 2026-05-04 15:06 | 25.26188 | 55.35911 | 69 ft | 8 kts | 148° |
| 2026-05-04 15:06 | 25.26148 | 55.35974 | 69 ft | 11 kts | 120° |
| 2026-05-04 15:06 | 25.26104 | 55.36056 | 69 ft | 13 kts | 120° |
| 2026-05-04 15:07 | 25.26000 | 55.36245 | 69 ft | 15 kts | 121° |
| 2026-05-04 15:07 | 25.25928 | 55.36374 | 69 ft | 22 kts | 121° |
| 2026-05-04 15:07 | 25.25837 | 55.36534 | 69 ft | 24 kts | 122° |
| 2026-05-04 15:07 | 25.25753 | 55.36688 | 69 ft | 22 kts | 121° |
| 2026-05-04 15:08 | 25.25667 | 55.36840 | 69 ft | 24 kts | 122° |
| 2026-05-04 15:08 | 25.25577 | 55.37001 | 69 ft | 25 kts | 122° |
| 2026-05-04 15:08 | 25.25482 | 55.37166 | 69 ft | 25 kts | 121° |
| 2026-05-04 15:08 | 25.25395 | 55.37328 | 69 ft | 23 kts | 121° |
| 2026-05-04 15:09 | 25.25315 | 55.37476 | 69 ft | 21 kts | 121° |
| 2026-05-04 15:09 | 25.25239 | 55.37615 | 69 ft | 20 kts | 121° |
| 2026-05-04 15:09 | 25.25157 | 55.37760 | 70 ft | 23 kts | 122° |
| 2026-05-04 15:10 | 25.25005 | 55.38036 | 70 ft | 11 kts | 121° |
| 2026-05-04 15:10 | 25.24970 | 55.38099 | 70 ft | 7 kts | 121° |
| 2026-05-04 15:10 | 25.24888 | 55.38099 | 70 ft | 8 kts | 210° |
| 2026-05-04 15:11 | 25.24832 | 55.38062 | 70 ft | 8 kts | 210° |
| 2026-05-04 15:11 | 25.24808 | 55.38040 | 70 ft | 3 kts | 253° |
| 2026-05-04 15:11 | 25.24814 | 55.38015 | 70 ft | 6 kts | 299° |
| 2026-05-04 15:11 | 25.24939 | 55.37783 | 70 ft | 71 kts | 300° |
| 2026-05-04 15:12 | 25.25317 | 55.37109 | 70 ft | 134 kts | 300° |
| 2026-05-04 15:12 | 25.25914 | 55.36039 | 105 ft | 184 kts | 298° |
| 2026-05-04 15:12 | 25.26543 | 55.34890 | 1015 ft | 170 kts | 300° |
| 2026-05-04 15:12 | 25.27164 | 55.33782 | 1537 ft | 176 kts | 301° |
| 2026-05-04 15:13 | 25.27824 | 55.32603 | 1972 ft | 186 kts | 301° |
| 2026-05-04 15:13 | 25.28513 | 55.31362 | 2433 ft | 195 kts | 301° |
| 2026-05-04 15:13 | 25.29108 | 55.30022 | 3001 ft | 197 kts | 286° |
| 2026-05-04 15:13 | 25.29128 | 55.28495 | 3460 ft | 208 kts | 257° |
| 2026-05-04 15:14 | 25.28532 | 55.26968 | 3760 ft | 228 kts | 245° |
| 2026-05-04 15:14 | 25.27805 | 55.25348 | 4196 ft | 241 kts | 246° |
| 2026-05-04 15:14 | 25.27086 | 55.23681 | 4796 ft | 245 kts | 248° |
| 2026-05-04 15:14 | 25.26360 | 55.21963 | 5394 ft | 250 kts | 248° |
| 2026-05-04 15:15 | 25.25618 | 55.20210 | 5992 ft | 254 kts | 248° |
| 2026-05-04 15:15 | 25.24759 | 55.18483 | 6585 ft | 260 kts | 237° |
| 2026-05-04 15:15 | 25.23420 | 55.17168 | 7142 ft | 269 kts | 209° |
| 2026-05-04 15:16 | 25.19572 | 55.16871 | 8081 ft | 288 kts | 163° |
| 2026-05-04 15:16 | 25.17806 | 55.17921 | 8602 ft | 291 kts | 135° |
| 2026-05-04 15:16 | 25.15767 | 55.21883 | 9334 ft | 309 kts | 105° |
| 2026-05-04 15:17 | 25.15049 | 55.24086 | 9955 ft | 311 kts | 109° |
| 2026-05-04 15:17 | 25.13137 | 55.28428 | 11193 ft | 318 kts | 115° |
| 2026-05-04 15:17 | 25.12066 | 55.30596 | 11716 ft | 325 kts | 116° |
| 2026-05-04 15:18 | 25.10961 | 55.32831 | 12007 ft | 340 kts | 116° |
| 2026-05-04 15:18 | 25.09864 | 55.35190 | 12303 ft | 354 kts | 113° |
| 2026-05-04 15:18 | 25.08804 | 55.37705 | 12559 ft | 369 kts | 112° |
| 2026-05-04 15:19 | 25.06649 | 55.43087 | 13043 ft | 397 kts | 111° |
| 2026-05-04 15:19 | 25.05574 | 55.45881 | 13602 ft | 400 kts | 110° |
| 2026-05-04 15:19 | 25.03415 | 55.51580 | 14765 ft | 407 kts | 111° |
| 2026-05-04 15:20 | 25.02311 | 55.54445 | 15323 ft | 411 kts | 112° |
| 2026-05-04 15:20 | 25.01072 | 55.57270 | 15878 ft | 416 kts | 116° |
| 2026-05-04 15:20 | 24.99644 | 55.60081 | 16445 ft | 420 kts | 119° |
| 2026-05-04 15:20 | 24.98142 | 55.62833 | 16974 ft | 424 kts | 120° |
| 2026-05-04 15:21 | 24.96582 | 55.65622 | 17519 ft | 428 kts | 121° |
| 2026-05-04 15:21 | 24.95035 | 55.68383 | 18045 ft | 431 kts | 121° |
| 2026-05-04 15:21 | 24.91686 | 55.73935 | 19133 ft | 438 kts | 126° |
| 2026-05-04 15:22 | 24.89875 | 55.76651 | 19658 ft | 441 kts | 127° |
| 2026-05-04 15:22 | 24.88040 | 55.79352 | 20178 ft | 443 kts | 127° |
| 2026-05-04 15:22 | 24.84325 | 55.84810 | 21209 ft | 449 kts | 127° |
| 2026-05-04 15:23 | 24.82445 | 55.87574 | 21666 ft | 452 kts | 128° |
| 2026-05-04 15:23 | 24.80554 | 55.90340 | 22135 ft | 456 kts | 128° |
| 2026-05-04 15:23 | 24.78583 | 55.93047 | 22558 ft | 459 kts | 132° |
| 2026-05-04 15:23 | 24.76417 | 55.95634 | 22996 ft | 462 kts | 135° |
| 2026-05-04 15:24 | 24.71789 | 56.00555 | 23820 ft | 468 kts | 139° |
| 2026-05-04 15:24 | 24.66955 | 56.05450 | 24569 ft | 476 kts | 139° |
| 2026-05-04 15:25 | 24.64518 | 56.07910 | 24952 ft | 479 kts | 139° |
| 2026-05-04 15:25 | 24.62061 | 56.10400 | 25286 ft | 483 kts | 139° |
| 2026-05-04 15:25 | 24.59572 | 56.12931 | 25677 ft | 485 kts | 139° |
| 2026-05-04 15:26 | 24.54728 | 56.18155 | 26396 ft | 492 kts | 134° |
| 2026-05-04 15:26 | 24.52449 | 56.20953 | 26702 ft | 497 kts | 133° |
| 2026-05-04 15:26 | 24.47945 | 56.26792 | 27369 ft | 503 kts | 131° |
| 2026-05-04 15:27 | 24.45718 | 56.29717 | 27845 ft | 502 kts | 131° |
| 2026-05-04 15:27 | 24.41223 | 56.35572 | 28734 ft | 501 kts | 132° |
| 2026-05-04 15:28 | 24.36701 | 56.41380 | 29638 ft | 499 kts | 132° |
| 2026-05-04 15:28 | 24.34451 | 56.44247 | 30081 ft | 499 kts | 132° |
| 2026-05-04 15:28 | 24.29942 | 56.49969 | 30845 ft | 499 kts | 132° |
| 2026-05-04 15:29 | 24.27732 | 56.52903 | 31094 ft | 501 kts | 129° |
| 2026-05-04 15:30 | 24.19614 | 56.65251 | 32100 ft | 497 kts | 127° |
| 2026-05-04 15:30 | 24.13608 | 56.74494 | 32727 ft | 497 kts | 127° |
| 2026-05-04 15:31 | 24.07564 | 56.83613 | 32731 ft | 492 kts | 127° |
| 2026-05-04 15:32 | 23.97481 | 56.98691 | 32707 ft | 492 kts | 127° |
| 2026-05-04 15:34 | 23.87385 | 57.13736 | 32725 ft | 492 kts | 127° |
| 2026-05-04 15:34 | 23.81303 | 57.22784 | 32731 ft | 493 kts | 127° |
| 2026-05-04 15:35 | 23.75219 | 57.31819 | 32735 ft | 493 kts | 127° |
| 2026-05-04 15:36 | 23.69085 | 57.40769 | 32768 ft | 492 kts | 129° |
| 2026-05-04 15:36 | 23.64844 | 57.46591 | 32765 ft | 491 kts | 130° |
| 2026-05-04 15:37 | 23.60579 | 57.52370 | 32763 ft | 493 kts | 130° |
| 2026-05-04 15:37 | 23.56289 | 57.58203 | 32786 ft | 492 kts | 129° |
| 2026-05-04 15:38 | 23.52028 | 57.64022 | 32779 ft | 491 kts | 129° |
| 2026-05-04 15:38 | 23.47783 | 57.69825 | 32791 ft | 491 kts | 130° |
| 2026-05-04 15:39 | 23.43505 | 57.75669 | 32816 ft | 491 kts | 130° |
| 2026-05-04 15:40 | 23.37130 | 57.84368 | 32844 ft | 490 kts | 130° |
| 2026-05-04 15:40 | 23.32906 | 57.90123 | 32852 ft | 491 kts | 129° |
| 2026-05-04 15:41 | 23.28623 | 57.95951 | 32875 ft | 492 kts | 130° |
| 2026-05-04 15:41 | 23.24359 | 58.01749 | 32879 ft | 492 kts | 129° |
| 2026-05-04 15:42 | 23.20353 | 58.07701 | 32911 ft | 490 kts | 125° |
| 2026-05-04 15:42 | 23.16562 | 58.13834 | 32935 ft | 488 kts | 124° |
| 2026-05-04 15:43 | 23.12793 | 58.19968 | 32943 ft | 489 kts | 124° |
| 2026-05-04 15:43 | 23.08981 | 58.26088 | 32954 ft | 489 kts | 125° |
| 2026-05-04 15:44 | 23.05151 | 58.32158 | 32954 ft | 488 kts | 126° |
| 2026-05-04 15:44 | 23.00857 | 58.37876 | 32959 ft | 486 kts | 139° |
| 2026-05-04 15:45 | 22.95428 | 58.42176 | 32955 ft | 483 kts | 149° |
| 2026-05-04 15:45 | 22.89704 | 58.45903 | 32948 ft | 481 kts | 152° |
| 2026-05-04 15:46 | 22.83910 | 58.49571 | 32923 ft | 482 kts | 152° |
| 2026-05-04 15:46 | 22.78107 | 58.53294 | 32899 ft | 482 kts | 151° |
| 2026-05-04 15:47 | 22.72371 | 58.57028 | 32884 ft | 482 kts | 150° |
| 2026-05-04 15:47 | 22.66631 | 58.60798 | 32872 ft | 483 kts | 150° |
| 2026-05-04 15:48 | 22.60888 | 58.64583 | 32869 ft | 482 kts | 150° |
| 2026-05-04 15:48 | 22.52293 | 58.70251 | 32848 ft | 483 kts | 151° |
| 2026-05-04 15:49 | 22.46575 | 58.74018 | 32838 ft | 482 kts | 150° |
| 2026-05-04 15:49 | 22.40829 | 58.77800 | 32839 ft | 482 kts | 150° |
| 2026-05-04 15:50 | 22.35112 | 58.81558 | 32832 ft | 483 kts | 150° |
| 2026-05-04 15:50 | 22.29343 | 58.85347 | 32825 ft | 482 kts | 150° |
| 2026-05-04 15:51 | 22.23612 | 58.89107 | 32818 ft | 481 kts | 150° |
| 2026-05-04 15:51 | 22.17897 | 58.92853 | 32806 ft | 482 kts | 150° |
| 2026-05-04 15:52 | 22.12166 | 58.96606 | 32800 ft | 483 kts | 150° |
| 2026-05-04 15:52 | 22.06391 | 59.00385 | 32801 ft | 483 kts | 150° |
| 2026-05-04 15:53 | 22.00650 | 59.04137 | 32800 ft | 483 kts | 150° |
| 2026-05-04 15:53 | 21.94947 | 59.07862 | 32791 ft | 481 kts | 150° |
| 2026-05-04 15:54 | 21.89186 | 59.11620 | 32783 ft | 482 kts | 150° |
| 2026-05-04 15:54 | 21.83473 | 59.15343 | 32776 ft | 482 kts | 150° |
| 2026-05-04 15:55 | 21.77752 | 59.19068 | 32770 ft | 480 kts | 150° |
| 2026-05-04 15:55 | 21.72003 | 59.22808 | 32766 ft | 480 kts | 150° |
| 2026-05-04 15:56 | 21.66270 | 59.26535 | 32766 ft | 480 kts | 150° |
| 2026-05-04 15:56 | 21.60582 | 59.30229 | 32757 ft | 479 kts | 150° |
| 2026-05-04 15:57 | 21.54873 | 59.33933 | 32748 ft | 480 kts | 150° |
| 2026-05-04 15:57 | 21.49150 | 59.37643 | 32744 ft | 479 kts | 150° |
| 2026-05-04 15:58 | 21.43445 | 59.41340 | 32746 ft | 479 kts | 150° |
| 2026-05-04 15:58 | 21.37749 | 59.45028 | 32745 ft | 479 kts | 150° |
| 2026-05-04 15:59 | 21.32037 | 59.48723 | 32744 ft | 478 kts | 150° |
| 2026-05-04 15:59 | 21.26368 | 59.52385 | 32742 ft | 476 kts | 150° |
| 2026-05-04 16:00 | 21.20684 | 59.56052 | 32741 ft | 477 kts | 150° |
| 2026-05-04 16:00 | 21.15006 | 59.59713 | 32740 ft | 477 kts | 150° |
| 2026-05-04 16:01 | 21.09320 | 59.63376 | 32740 ft | 477 kts | 150° |
| 2026-05-04 16:01 | 21.03582 | 59.67067 | 32740 ft | 477 kts | 151° |
| 2026-05-04 16:02 | 20.97916 | 59.70710 | 32739 ft | 475 kts | 151° |
| 2026-05-04 16:03 | 20.89415 | 59.76167 | 32741 ft | 475 kts | 151° |
| 2026-05-04 16:03 | 20.83713 | 59.79821 | 32746 ft | 475 kts | 150° |
| 2026-05-04 16:04 | 20.78037 | 59.83456 | 32743 ft | 476 kts | 150° |
| 2026-05-04 16:04 | 20.69528 | 59.88900 | 32750 ft | 476 kts | 150° |
| 2026-05-04 16:05 | 20.63842 | 59.92534 | 32746 ft | 475 kts | 150° |
| 2026-05-04 16:06 | 20.55347 | 59.97957 | 32747 ft | 474 kts | 151° |
| 2026-05-04 16:07 | 20.43980 | 60.05203 | 32753 ft | 474 kts | 150° |
| 2026-05-04 16:08 | 20.32664 | 60.12402 | 32756 ft | 474 kts | 150° |
| 2026-05-04 16:09 | 20.18493 | 60.21403 | 32753 ft | 473 kts | 150° |
| 2026-05-04 16:10 | 20.07204 | 60.28585 | 32752 ft | 473 kts | 148° |
| 2026-05-04 16:11 | 19.96950 | 60.37383 | 32750 ft | 474 kts | 139° |
| 2026-05-04 16:12 | 19.82322 | 60.51483 | 32758 ft | 474 kts | 139° |
| 2026-05-04 16:13 | 19.72501 | 60.60815 | 32766 ft | 473 kts | 139° |
| 2026-05-04 16:14 | 19.62699 | 60.70092 | 32768 ft | 472 kts | 139° |
| 2026-05-04 16:16 | 19.50422 | 60.81689 | 32773 ft | 473 kts | 139° |
| 2026-05-04 16:17 | 19.38182 | 60.93228 | 32776 ft | 471 kts | 139° |
| 2026-05-04 16:18 | 19.28398 | 61.02433 | 32775 ft | 471 kts | 139° |
| 2026-05-04 16:19 | 19.16138 | 61.13945 | 32776 ft | 470 kts | 139° |
| 2026-05-04 16:20 | 19.03932 | 61.25384 | 32787 ft | 469 kts | 139° |
| 2026-05-04 16:22 | 18.91726 | 61.36799 | 32781 ft | 468 kts | 139° |
| 2026-05-04 16:23 | 18.77101 | 61.50447 | 32794 ft | 467 kts | 139° |
| 2026-05-04 16:25 | 18.62465 | 61.64070 | 32797 ft | 467 kts | 139° |
| 2026-05-04 16:26 | 18.45414 | 61.79902 | 32805 ft | 466 kts | 139° |
| 2026-05-04 16:28 | 18.33225 | 61.91193 | 32807 ft | 466 kts | 139° |
| 2026-05-04 16:29 | 18.16196 | 62.06929 | 32815 ft | 465 kts | 139° |
| 2026-05-04 16:31 | 18.04045 | 62.18132 | 32821 ft | 464 kts | 139° |
| 2026-05-04 16:32 | 17.89487 | 62.31525 | 32811 ft | 464 kts | 139° |
| 2026-05-04 16:33 | 17.79764 | 62.40454 | 32818 ft | 465 kts | 139° |
| 2026-05-04 16:34 | 17.72482 | 62.47134 | 32817 ft | 463 kts | 139° |
| 2026-05-04 16:35 | 17.57929 | 62.60464 | 32819 ft | 463 kts | 139° |
| 2026-05-04 16:36 | 17.50609 | 62.67156 | 32829 ft | 464 kts | 139° |
| 2026-05-04 16:37 | 17.43334 | 62.73801 | 32832 ft | 463 kts | 139° |
| 2026-05-04 16:38 | 17.33652 | 62.82632 | 32831 ft | 462 kts | 139° |
| 2026-05-04 16:39 | 17.21483 | 62.93714 | 32823 ft | 463 kts | 139° |
| 2026-05-04 16:40 | 17.11714 | 63.02594 | 32822 ft | 462 kts | 139° |
| 2026-05-04 16:41 | 16.99553 | 63.13618 | 32822 ft | 462 kts | 139° |
| 2026-05-04 16:43 | 16.87171 | 63.24355 | 32826 ft | 463 kts | 140° |
| 2026-05-04 16:43 | 16.79726 | 63.30780 | 32833 ft | 464 kts | 140° |
| 2026-05-04 16:45 | 16.64850 | 63.43641 | 32841 ft | 462 kts | 140° |
| 2026-05-04 16:46 | 16.52423 | 63.54375 | 32844 ft | 463 kts | 139° |
| 2026-05-04 16:47 | 16.42468 | 63.62958 | 32842 ft | 462 kts | 139° |
| 2026-05-04 16:48 | 16.32559 | 63.71492 | 32845 ft | 462 kts | 140° |
| 2026-05-04 16:49 | 16.22662 | 63.80002 | 32845 ft | 461 kts | 139° |
| 2026-05-04 16:50 | 16.12726 | 63.88534 | 32845 ft | 462 kts | 139° |
| 2026-05-04 16:51 | 16.05337 | 63.94871 | 32844 ft | 461 kts | 139° |
| 2026-05-04 16:52 | 15.95438 | 64.03352 | 32841 ft | 460 kts | 139° |
| 2026-05-04 16:53 | 15.88023 | 64.09699 | 32844 ft | 459 kts | 139° |
| 2026-05-04 16:54 | 15.78148 | 64.18140 | 32845 ft | 460 kts | 139° |
| 2026-05-04 16:55 | 15.63337 | 64.30778 | 32850 ft | 459 kts | 139° |
| 2026-05-04 16:56 | 15.50962 | 64.41321 | 32864 ft | 460 kts | 139° |
| 2026-05-04 16:57 | 15.43537 | 64.47639 | 32863 ft | 460 kts | 139° |
| 2026-05-04 16:58 | 15.33645 | 64.56043 | 32863 ft | 460 kts | 139° |
| 2026-05-04 17:00 | 15.18772 | 64.68662 | 32862 ft | 460 kts | 139° |
| 2026-05-04 17:01 | 15.06402 | 64.79137 | 32860 ft | 460 kts | 139° |
| 2026-05-04 17:02 | 14.96445 | 64.87560 | 32864 ft | 461 kts | 139° |
| 2026-05-04 17:03 | 14.88984 | 64.93861 | 32864 ft | 461 kts | 139° |
| 2026-05-04 17:03 | 14.81551 | 65.00136 | 32859 ft | 460 kts | 139° |
| 2026-05-04 17:04 | 14.71650 | 65.08484 | 32849 ft | 459 kts | 139° |
| 2026-05-04 17:05 | 14.61742 | 65.16828 | 32852 ft | 459 kts | 139° |
| 2026-05-04 17:06 | 14.54322 | 65.23070 | 32861 ft | 458 kts | 139° |
| 2026-05-04 17:07 | 14.47728 | 65.28608 | 32864 ft | 457 kts | 139° |
| 2026-05-04 17:07 | 14.41988 | 65.33427 | 32865 ft | 457 kts | 139° |
| 2026-05-04 17:08 | 14.34583 | 65.39639 | 32876 ft | 457 kts | 139° |
| 2026-05-04 17:09 | 14.29668 | 65.43759 | 32879 ft | 456 kts | 139° |
| 2026-05-04 17:09 | 14.24746 | 65.47882 | 32878 ft | 457 kts | 139° |
| 2026-05-04 17:10 | 14.19813 | 65.52012 | 33146 ft | 456 kts | 139° |
| 2026-05-04 17:10 | 14.12337 | 65.58266 | 34251 ft | 457 kts | 139° |
| 2026-05-04 17:11 | 14.09898 | 65.60306 | 34707 ft | 454 kts | 139° |
| 2026-05-04 17:11 | 14.07423 | 65.62374 | 34866 ft | 457 kts | 139° |
| 2026-05-04 17:12 | 14.00058 | 65.68527 | 34864 ft | 453 kts | 140° |
| 2026-05-04 17:13 | 13.87765 | 65.78788 | 34868 ft | 454 kts | 139° |
| 2026-05-04 17:14 | 13.77952 | 65.86968 | 34868 ft | 454 kts | 140° |
| 2026-05-04 17:15 | 13.70591 | 65.93096 | 34866 ft | 454 kts | 139° |
| 2026-05-04 17:16 | 13.60762 | 66.01272 | 34863 ft | 454 kts | 140° |
| 2026-05-04 17:17 | 13.50978 | 66.09403 | 34864 ft | 454 kts | 140° |
| 2026-05-04 17:18 | 13.41100 | 66.17601 | 34864 ft | 454 kts | 140° |
| 2026-05-04 17:19 | 13.31301 | 66.25724 | 34864 ft | 453 kts | 140° |
| 2026-05-04 17:20 | 13.21466 | 66.33870 | 34864 ft | 454 kts | 140° |
| 2026-05-04 17:20 | 13.14080 | 66.39981 | 34868 ft | 454 kts | 140° |
| 2026-05-04 17:21 | 13.04260 | 66.48099 | 34883 ft | 454 kts | 140° |
| 2026-05-04 17:22 | 12.99318 | 66.52180 | 34885 ft | 454 kts | 140° |
| 2026-05-04 17:23 | 12.89483 | 66.60297 | 34886 ft | 454 kts | 140° |
| 2026-05-04 17:24 | 12.82102 | 66.66385 | 34885 ft | 454 kts | 140° |
| 2026-05-04 17:25 | 12.72242 | 66.74507 | 34884 ft | 454 kts | 140° |
| 2026-05-04 17:26 | 12.62420 | 66.82591 | 34884 ft | 454 kts | 140° |
| 2026-05-04 17:27 | 12.50091 | 66.92725 | 34884 ft | 455 kts | 140° |
| 2026-05-04 17:28 | 12.40217 | 67.00832 | 34883 ft | 455 kts | 140° |
| 2026-05-04 17:29 | 12.25419 | 67.12967 | 34882 ft | 455 kts | 140° |
| 2026-05-04 17:31 | 12.13086 | 67.23066 | 34881 ft | 454 kts | 140° |
| 2026-05-04 17:32 | 12.00723 | 67.33179 | 34881 ft | 455 kts | 140° |
| 2026-05-04 17:33 | 11.90824 | 67.41266 | 34883 ft | 455 kts | 140° |
| 2026-05-04 17:34 | 11.80950 | 67.49321 | 34883 ft | 454 kts | 140° |
| 2026-05-04 17:35 | 11.68610 | 67.59380 | 34884 ft | 454 kts | 140° |
| 2026-05-04 17:36 | 11.63654 | 67.63415 | 34886 ft | 454 kts | 140° |
| 2026-05-04 17:36 | 11.58725 | 67.67427 | 34889 ft | 454 kts | 140° |
| 2026-05-04 17:37 | 11.53786 | 67.71445 | 34899 ft | 453 kts | 140° |
| 2026-05-04 17:37 | 11.48884 | 67.75431 | 34905 ft | 452 kts | 140° |
| 2026-05-04 17:38 | 11.43934 | 67.79455 | 34905 ft | 453 kts | 141° |
| 2026-05-04 17:38 | 11.39027 | 67.83443 | 34905 ft | 453 kts | 141° |
| 2026-05-04 17:39 | 11.31619 | 67.89458 | 34906 ft | 452 kts | 141° |
| 2026-05-04 17:39 | 11.26681 | 67.93465 | 34906 ft | 452 kts | 141° |
| 2026-05-04 17:40 | 11.21768 | 67.97450 | 34905 ft | 451 kts | 141° |
| 2026-05-04 17:40 | 11.16859 | 68.01431 | 34906 ft | 452 kts | 141° |
| 2026-05-04 17:41 | 11.11948 | 68.05411 | 34907 ft | 452 kts | 141° |
| 2026-05-04 17:41 | 11.07047 | 68.09382 | 34907 ft | 451 kts | 141° |
| 2026-05-04 17:42 | 11.02124 | 68.13369 | 34905 ft | 452 kts | 141° |
| 2026-05-04 17:42 | 10.97200 | 68.17360 | 34904 ft | 453 kts | 141° |
| 2026-05-04 17:43 | 10.92257 | 68.21365 | 34905 ft | 452 kts | 141° |
| 2026-05-04 17:43 | 10.87359 | 68.25333 | 34903 ft | 452 kts | 141° |
| 2026-05-04 17:44 | 10.82433 | 68.29321 | 34904 ft | 451 kts | 141° |
| 2026-05-04 17:44 | 10.77532 | 68.33288 | 34903 ft | 450 kts | 141° |
| 2026-05-04 17:45 | 10.72625 | 68.37256 | 34900 ft | 453 kts | 141° |
| 2026-05-04 17:45 | 10.67703 | 68.41236 | 34897 ft | 452 kts | 141° |
| 2026-05-04 17:46 | 10.62752 | 68.45236 | 34892 ft | 452 kts | 141° |
| 2026-05-04 17:46 | 10.57842 | 68.49202 | 34890 ft | 451 kts | 141° |
| 2026-05-04 17:47 | 10.52907 | 68.53187 | 34889 ft | 452 kts | 141° |
| 2026-05-04 17:47 | 10.48006 | 68.57143 | 34889 ft | 451 kts | 141° |
| 2026-05-04 17:48 | 10.43077 | 68.61120 | 34889 ft | 452 kts | 141° |
| 2026-05-04 17:48 | 10.38178 | 68.65070 | 34886 ft | 452 kts | 141° |
| 2026-05-04 17:49 | 10.33221 | 68.69067 | 34884 ft | 452 kts | 141° |
| 2026-05-04 17:49 | 10.28298 | 68.73033 | 34883 ft | 451 kts | 141° |
| 2026-05-04 17:50 | 10.23399 | 68.76978 | 34884 ft | 451 kts | 141° |
| 2026-05-04 17:50 | 10.18482 | 68.80936 | 34884 ft | 451 kts | 141° |
| 2026-05-04 17:51 | 10.13553 | 68.84904 | 34884 ft | 452 kts | 141° |
| 2026-05-04 17:51 | 10.08609 | 68.88881 | 34883 ft | 451 kts | 141° |
| 2026-05-04 17:52 | 10.03676 | 68.92847 | 34883 ft | 451 kts | 141° |
| 2026-05-04 17:52 | 9.98772 | 68.96790 | 34889 ft | 452 kts | 141° |
| 2026-05-04 17:53 | 9.93822 | 69.00766 | 34899 ft | 451 kts | 141° |
| 2026-05-04 17:53 | 9.88912 | 69.04710 | 34905 ft | 450 kts | 141° |
| 2026-05-04 17:54 | 9.84013 | 69.08643 | 34905 ft | 451 kts | 141° |
| 2026-05-04 17:54 | 9.79070 | 69.12610 | 34905 ft | 451 kts | 141° |
| 2026-05-04 17:55 | 9.74166 | 69.16544 | 34905 ft | 451 kts | 141° |
| 2026-05-04 17:55 | 9.69239 | 69.20493 | 34905 ft | 450 kts | 141° |
| 2026-05-04 17:56 | 9.64322 | 69.24428 | 34905 ft | 450 kts | 141° |
| 2026-05-04 17:56 | 9.59389 | 69.28373 | 34905 ft | 450 kts | 141° |
| 2026-05-04 17:57 | 9.54484 | 69.32296 | 34905 ft | 450 kts | 141° |
| 2026-05-04 17:57 | 9.49587 | 69.36211 | 34905 ft | 449 kts | 141° |
| 2026-05-04 17:58 | 9.44679 | 69.40133 | 34905 ft | 451 kts | 141° |
| 2026-05-04 17:58 | 9.39754 | 69.44067 | 34905 ft | 449 kts | 141° |
| 2026-05-04 17:59 | 9.34824 | 69.48004 | 34905 ft | 450 kts | 141° |
| 2026-05-04 18:00 | 9.27469 | 69.53873 | 34905 ft | 449 kts | 141° |
| 2026-05-04 18:00 | 9.22562 | 69.57789 | 34905 ft | 448 kts | 141° |
| 2026-05-04 18:01 | 9.17659 | 69.61700 | 34905 ft | 448 kts | 141° |
| 2026-05-04 18:01 | 9.12751 | 69.65613 | 34904 ft | 449 kts | 141° |
| 2026-05-04 18:02 | 9.05391 | 69.71478 | 34905 ft | 448 kts | 141° |
| 2026-05-04 18:02 | 9.00494 | 69.75379 | 34905 ft | 447 kts | 141° |
| 2026-05-04 18:03 | 8.95604 | 69.79273 | 34906 ft | 448 kts | 141° |
| 2026-05-04 18:03 | 8.90729 | 69.83153 | 34906 ft | 447 kts | 141° |
| 2026-05-04 18:04 | 8.85822 | 69.87058 | 34905 ft | 447 kts | 141° |
| 2026-05-04 18:05 | 8.78497 | 69.92884 | 34905 ft | 446 kts | 141° |
| 2026-05-04 18:05 | 8.73621 | 69.96759 | 34905 ft | 447 kts | 141° |
| 2026-05-04 18:06 | 8.66274 | 70.02599 | 34905 ft | 446 kts | 141° |
| 2026-05-04 18:06 | 8.61397 | 70.06473 | 34905 ft | 447 kts | 141° |
| 2026-05-04 18:07 | 8.56517 | 70.10346 | 34906 ft | 446 kts | 141° |
| 2026-05-04 18:07 | 8.51625 | 70.14230 | 34905 ft | 447 kts | 141° |
| 2026-05-04 18:08 | 8.46737 | 70.18109 | 34905 ft | 447 kts | 141° |
| 2026-05-04 18:08 | 8.41837 | 70.21998 | 34907 ft | 446 kts | 141° |
| 2026-05-04 18:09 | 8.32078 | 70.29735 | 34901 ft | 446 kts | 141° |
| 2026-05-04 18:10 | 8.27166 | 70.33626 | 34890 ft | 447 kts | 141° |
| 2026-05-04 18:10 | 8.22292 | 70.37486 | 34885 ft | 446 kts | 141° |
| 2026-05-04 18:11 | 8.17381 | 70.41376 | 34885 ft | 446 kts | 141° |
| 2026-05-04 18:11 | 8.12487 | 70.45251 | 34886 ft | 446 kts | 141° |
| 2026-05-04 18:12 | 8.07614 | 70.49107 | 34884 ft | 447 kts | 141° |
| 2026-05-04 18:12 | 8.02707 | 70.52989 | 34885 ft | 446 kts | 141° |
| 2026-05-04 18:13 | 7.97846 | 70.56834 | 34884 ft | 444 kts | 141° |
| 2026-05-04 18:14 | 7.90493 | 70.62650 | 34885 ft | 446 kts | 141° |
| 2026-05-04 18:14 | 7.85625 | 70.66496 | 34887 ft | 446 kts | 141° |
| 2026-05-04 18:15 | 7.75862 | 70.74206 | 34901 ft | 447 kts | 141° |
| 2026-05-04 18:16 | 7.70937 | 70.78095 | 34903 ft | 448 kts | 141° |
| 2026-05-04 18:16 | 7.66042 | 70.81959 | 34901 ft | 449 kts | 142° |
| 2026-05-04 18:17 | 7.58671 | 70.87775 | 34902 ft | 447 kts | 142° |
| 2026-05-04 18:18 | 7.51287 | 70.93598 | 34904 ft | 447 kts | 142° |
| 2026-05-04 18:18 | 7.46381 | 70.97464 | 34904 ft | 448 kts | 142° |
| 2026-05-04 18:19 | 7.39042 | 71.03240 | 34905 ft | 448 kts | 142° |
| 2026-05-04 18:19 | 7.34126 | 71.07107 | 34905 ft | 448 kts | 142° |
| 2026-05-04 18:20 | 7.29183 | 71.10995 | 34906 ft | 448 kts | 142° |
| 2026-05-04 18:20 | 7.24272 | 71.14858 | 34906 ft | 447 kts | 142° |
| 2026-05-04 18:21 | 7.19367 | 71.18715 | 34906 ft | 449 kts | 142° |
| 2026-05-04 18:21 | 7.14468 | 71.22566 | 34905 ft | 447 kts | 142° |
| 2026-05-04 18:22 | 7.09561 | 71.26421 | 34905 ft | 448 kts | 142° |
| 2026-05-04 18:22 | 7.04593 | 71.30322 | 34906 ft | 449 kts | 142° |
| 2026-05-04 18:23 | 6.99672 | 71.34187 | 34908 ft | 448 kts | 142° |
| 2026-05-04 18:23 | 6.94769 | 71.38036 | 34905 ft | 448 kts | 142° |
| 2026-05-04 18:24 | 6.89851 | 71.41897 | 34908 ft | 448 kts | 142° |
| 2026-05-04 18:24 | 6.84904 | 71.45781 | 34903 ft | 451 kts | 142° |
| 2026-05-04 18:25 | 6.79973 | 71.49650 | 34899 ft | 449 kts | 142° |
| 2026-05-04 18:25 | 6.75041 | 71.53519 | 34894 ft | 450 kts | 142° |
| 2026-05-04 18:26 | 6.70122 | 71.57377 | 34893 ft | 448 kts | 142° |
| 2026-05-04 18:26 | 6.65202 | 71.61234 | 34889 ft | 450 kts | 142° |
| 2026-05-04 18:27 | 6.60261 | 71.65105 | 34893 ft | 450 kts | 142° |
| 2026-05-04 18:27 | 6.55303 | 71.68986 | 34896 ft | 450 kts | 142° |
| 2026-05-04 18:28 | 6.50374 | 71.72848 | 34897 ft | 450 kts | 142° |
| 2026-05-04 18:28 | 6.45432 | 71.76720 | 34900 ft | 451 kts | 142° |
| 2026-05-04 18:29 | 6.40475 | 71.80599 | 34903 ft | 451 kts | 142° |
| 2026-05-04 18:29 | 6.35532 | 71.84475 | 34905 ft | 451 kts | 142° |
| 2026-05-04 18:30 | 6.28153 | 71.90421 | 34906 ft | 452 kts | 141° |
| 2026-05-04 18:31 | 6.23257 | 71.94397 | 34904 ft | 452 kts | 141° |
| 2026-05-04 18:31 | 6.18376 | 71.98351 | 34906 ft | 452 kts | 141° |
| 2026-05-04 18:32 | 6.13453 | 72.02331 | 34906 ft | 452 kts | 141° |
| 2026-05-04 18:32 | 6.08544 | 72.06296 | 34905 ft | 453 kts | 142° |
| 2026-05-04 18:33 | 6.03661 | 72.10238 | 34907 ft | 451 kts | 141° |
| 2026-05-04 18:33 | 5.98754 | 72.14197 | 34907 ft | 451 kts | 141° |
| 2026-05-04 18:34 | 5.93698 | 72.17982 | 34905 ft | 452 kts | 146° |
| 2026-05-04 18:34 | 5.88478 | 72.21448 | 34905 ft | 452 kts | 147° |
| 2026-05-04 18:35 | 5.83209 | 72.24895 | 34906 ft | 452 kts | 147° |
| 2026-05-04 18:35 | 5.77947 | 72.28371 | 34905 ft | 451 kts | 147° |
| 2026-05-04 18:36 | 5.72710 | 72.31864 | 34906 ft | 452 kts | 146° |
| 2026-05-04 18:36 | 5.67471 | 72.35378 | 34905 ft | 452 kts | 146° |
| 2026-05-04 18:37 | 5.62232 | 72.38900 | 34906 ft | 451 kts | 146° |
| 2026-05-04 18:37 | 5.59619 | 72.40658 | 34738 ft | 449 kts | 146° |
| 2026-05-04 18:37 | 5.57070 | 72.42373 | 34219 ft | 445 kts | 146° |
| 2026-05-04 18:37 | 5.54496 | 72.44104 | 33573 ft | 444 kts | 146° |
| 2026-05-04 18:38 | 5.51900 | 72.45852 | 32855 ft | 444 kts | 147° |
| 2026-05-04 18:38 | 5.49362 | 72.47559 | 32225 ft | 444 kts | 147° |
| 2026-05-04 18:38 | 5.46769 | 72.49303 | 31752 ft | 444 kts | 147° |
| 2026-05-04 18:38 | 5.44198 | 72.51032 | 31216 ft | 449 kts | 147° |
| 2026-05-04 18:39 | 5.41623 | 72.52763 | 30655 ft | 447 kts | 147° |
| 2026-05-04 18:39 | 5.39032 | 72.54507 | 30086 ft | 444 kts | 147° |
| 2026-05-04 18:39 | 5.36495 | 72.56213 | 29528 ft | 441 kts | 147° |
| 2026-05-04 18:39 | 5.33925 | 72.57941 | 28954 ft | 438 kts | 147° |
| 2026-05-04 18:40 | 5.31416 | 72.59628 | 28401 ft | 436 kts | 147° |
| 2026-05-04 18:40 | 5.28912 | 72.61311 | 27849 ft | 433 kts | 146° |
| 2026-05-04 18:40 | 5.26405 | 72.62994 | 27282 ft | 431 kts | 146° |
| 2026-05-04 18:40 | 5.23903 | 72.64675 | 26717 ft | 429 kts | 147° |
| 2026-05-04 18:41 | 5.21464 | 72.66314 | 26161 ft | 427 kts | 146° |
| 2026-05-04 18:41 | 5.18977 | 72.67985 | 25594 ft | 424 kts | 146° |
| 2026-05-04 18:41 | 5.16557 | 72.69611 | 25042 ft | 422 kts | 146° |
| 2026-05-04 18:41 | 5.14118 | 72.71290 | 24553 ft | 417 kts | 142° |
| 2026-05-04 18:42 | 5.11975 | 72.73180 | 23785 ft | 418 kts | 135° |
| 2026-05-04 18:42 | 5.10005 | 72.75363 | 22980 ft | 417 kts | 130° |
| 2026-05-04 18:42 | 5.08210 | 72.77573 | 22350 ft | 413 kts | 128° |
| 2026-05-04 18:42 | 5.06429 | 72.79832 | 21769 ft | 408 kts | 128° |
| 2026-05-04 18:43 | 5.04679 | 72.82040 | 21174 ft | 405 kts | 128° |
| 2026-05-04 18:43 | 5.02905 | 72.84237 | 20537 ft | 403 kts | 128° |
| 2026-05-04 18:43 | 5.01130 | 72.86395 | 19947 ft | 399 kts | 129° |
| 2026-05-04 18:43 | 4.99392 | 72.88476 | 19629 ft | 386 kts | 129° |
| 2026-05-04 18:44 | 4.97670 | 72.90517 | 19216 ft | 376 kts | 129° |
| 2026-05-04 18:44 | 4.96554 | 72.91835 | 18774 ft | 375 kts | 129° |
| 2026-05-04 18:44 | 4.94316 | 72.94473 | 17925 ft | 372 kts | 129° |
| 2026-05-04 18:44 | 4.92654 | 72.96427 | 17279 ft | 370 kts | 128° |
| 2026-05-04 18:45 | 4.90972 | 72.98401 | 16695 ft | 366 kts | 129° |
| 2026-05-04 18:45 | 4.89334 | 73.00320 | 16116 ft | 363 kts | 129° |
| 2026-05-04 18:45 | 4.87705 | 73.02228 | 15564 ft | 358 kts | 129° |
| 2026-05-04 18:45 | 4.86099 | 73.04108 | 15010 ft | 354 kts | 129° |
| 2026-05-04 18:46 | 4.84509 | 73.05971 | 14441 ft | 350 kts | 129° |
| 2026-05-04 18:46 | 4.82926 | 73.07825 | 13883 ft | 346 kts | 129° |
| 2026-05-04 18:46 | 4.81385 | 73.09630 | 13319 ft | 343 kts | 129° |
| 2026-05-04 18:46 | 4.79836 | 73.11444 | 12745 ft | 339 kts | 129° |
| 2026-05-04 18:47 | 4.78310 | 73.13231 | 12119 ft | 338 kts | 129° |
| 2026-05-04 18:47 | 4.76792 | 73.15007 | 11547 ft | 335 kts | 129° |
| 2026-05-04 18:47 | 4.75282 | 73.16773 | 11094 ft | 328 kts | 129° |
| 2026-05-04 18:47 | 4.73811 | 73.18494 | 10639 ft | 323 kts | 130° |
| 2026-05-04 18:48 | 4.72363 | 73.20190 | 10344 ft | 320 kts | 130° |
| 2026-05-04 18:48 | 4.70923 | 73.21875 | 10204 ft | 309 kts | 130° |
| 2026-05-04 18:48 | 4.69546 | 73.23486 | 10086 ft | 297 kts | 130° |
| 2026-05-04 18:48 | 4.68210 | 73.25047 | 9770 ft | 295 kts | 130° |
| 2026-05-04 18:49 | 4.66886 | 73.26596 | 9379 ft | 295 kts | 130° |
| 2026-05-04 18:49 | 4.65548 | 73.28162 | 9018 ft | 294 kts | 130° |
| 2026-05-04 18:49 | 4.64226 | 73.29708 | 8663 ft | 293 kts | 130° |
| 2026-05-04 18:49 | 4.62891 | 73.31267 | 8310 ft | 291 kts | 130° |
| 2026-05-04 18:50 | 4.61590 | 73.32787 | 7963 ft | 290 kts | 130° |
| 2026-05-04 18:50 | 4.60287 | 73.34324 | 7604 ft | 289 kts | 130° |
| 2026-05-04 18:50 | 4.58989 | 73.35867 | 7247 ft | 287 kts | 130° |
| 2026-05-04 18:50 | 4.57701 | 73.37400 | 6893 ft | 285 kts | 130° |
| 2026-05-04 18:51 | 4.56431 | 73.38909 | 6546 ft | 281 kts | 130° |
| 2026-05-04 18:51 | 4.55183 | 73.40391 | 6201 ft | 278 kts | 131° |
| 2026-05-04 18:51 | 4.53940 | 73.41863 | 5860 ft | 276 kts | 131° |
| 2026-05-04 18:51 | 4.52697 | 73.43333 | 5514 ft | 273 kts | 131° |
| 2026-05-04 18:52 | 4.51475 | 73.44778 | 5174 ft | 271 kts | 131° |
| 2026-05-04 18:52 | 4.50257 | 73.46220 | 4834 ft | 269 kts | 131° |
| 2026-05-04 18:52 | 4.49055 | 73.47645 | 4508 ft | 266 kts | 131° |
| 2026-05-04 18:52 | 4.47890 | 73.49026 | 4324 ft | 258 kts | 131° |
| 2026-05-04 18:53 | 4.46744 | 73.50384 | 4184 ft | 249 kts | 131° |
| 2026-05-04 18:53 | 4.45642 | 73.51681 | 4058 ft | 241 kts | 134° |
| 2026-05-04 18:53 | 4.44402 | 73.52743 | 3993 ft | 227 kts | 156° |
| 2026-05-04 18:53 | 4.42927 | 73.53095 | 3990 ft | 212 kts | 180° |
| 2026-05-04 18:54 | 4.41486 | 73.53091 | 3921 ft | 207 kts | 184° |
| 2026-05-04 18:54 | 4.40020 | 73.53068 | 3652 ft | 210 kts | 182° |
| 2026-05-04 18:54 | 4.38564 | 73.53070 | 3392 ft | 208 kts | 182° |
| 2026-05-04 18:54 | 4.37114 | 73.53078 | 3084 ft | 207 kts | 182° |
| 2026-05-04 18:55 | 4.35680 | 73.53081 | 2807 ft | 205 kts | 182° |
| 2026-05-04 18:55 | 4.32832 | 73.53081 | 2264 ft | 201 kts | 182° |
| 2026-05-04 18:55 | 4.31449 | 73.53084 | 1993 ft | 192 kts | 183° |
| 2026-05-04 18:56 | 4.30172 | 73.53085 | 1771 ft | 177 kts | 183° |
| 2026-05-04 18:56 | 4.28974 | 73.53091 | 1539 ft | 163 kts | 183° |
| 2026-05-04 18:56 | 4.27885 | 73.53094 | 1335 ft | 155 kts | 183° |
| 2026-05-04 18:56 | 4.26809 | 73.53093 | 1138 ft | 154 kts | 183° |
| 2026-05-04 18:57 | 4.25720 | 73.53094 | 938 ft | 157 kts | 183° |
| 2026-05-04 18:57 | 4.24618 | 73.53095 | 747 ft | 158 kts | 182° |
| 2026-05-04 18:57 | 4.23524 | 73.53099 | 535 ft | 156 kts | 182° |
| 2026-05-04 18:57 | 4.22435 | 73.53095 | 332 ft | 154 kts | 182° |
| 2026-05-04 18:58 | 4.21366 | 73.53104 | 146 ft | 153 kts | 182° |
| 2026-05-04 18:58 | 4.20308 | 73.53102 | 11 ft | 148 kts | 181° |
| 2026-05-04 18:58 | 4.19469 | 73.53102 | 15 ft | 92 kts | 180° |
| 2026-05-04 18:58 | 4.18935 | 73.53103 | 17 ft | 67 kts | 180° |
| 2026-05-04 18:59 | 4.18583 | 73.53099 | 12 ft | 24 kts | 182° |
| 2026-05-04 18:59 | 4.18538 | 73.53088 | 11 ft | 3 kts | 240° |
| 2026-05-04 18:59 | 4.18539 | 73.53068 | 11 ft | 2 kts | 283° |
| 2026-05-04 18:59 | 4.18543 | 73.53049 | 12 ft | 4 kts | 278° |
| 2026-05-04 19:00 | 4.18544 | 73.53012 | 13 ft | 6 kts | 271° |
| 2026-05-04 19:00 | 4.18544 | 73.52964 | 15 ft | 7 kts | 261° |
| 2026-05-04 19:00 | 4.18504 | 73.52925 | 15 ft | 10 kts | 182° |
| 2026-05-04 19:00 | 4.18415 | 73.52926 | 15 ft | 15 kts | 179° |
| 2026-05-04 19:01 | 4.18298 | 73.52929 | 15 ft | 16 kts | 178° |
| 2026-05-04 19:01 | 4.18192 | 73.52931 | 15 ft | 10 kts | 179° |
| 2026-05-04 19:01 | 4.18130 | 73.52920 | 15 ft | 5 kts | 225° |
| 2026-05-04 19:01 | 4.18125 | 73.52889 | 15 ft | 5 kts | 285° |
| 2026-05-04 19:02 | 4.18132 | 73.52843 | 15 ft | 7 kts | 268° |
| 2026-05-04 19:02 | 4.18130 | 73.52788 | 14 ft | 5 kts | 268° |
| 2026-05-04 19:02 | 4.18130 | 73.52766 | 13 ft | 1 kts | 270° |
| 2026-05-04 19:02 | 4.18130 | 73.52762 | 13 ft | 0 kts | 270° |